createdAt,value
2023-01-27T00:00:28.307Z,21.23
2023-01-27T00:02:54.823Z,21.15
2023-01-27T00:05:22.141Z,21.05
2023-01-27T00:07:49.755Z,21.67
2023-01-27T00:10:18.464Z,21.58
2023-01-27T00:13:04.910Z,23.17
2023-01-27T00:15:33.294Z,21.73
2023-01-27T00:18:00.368Z,21.77
2023-01-27T00:20:45.901Z,19.83
2023-01-27T00:23:39.891Z,21.67
2023-01-27T00:26:08.928Z,20.50
2023-01-27T00:28:37.028Z,22.23
2023-01-27T00:31:04.627Z,20.70
2023-01-27T00:33:31.060Z,20.88
2023-01-27T00:36:03.025Z,20.63
2023-01-27T00:38:31.036Z,21.85
2023-01-27T00:41:19.555Z,23.10
2023-01-27T00:43:47.762Z,23.10
2023-01-27T00:46:15.214Z,22.08
2023-01-27T00:48:41.610Z,23.80
2023-01-27T00:51:08.283Z,24.98
2023-01-27T00:53:34.728Z,25.08
2023-01-27T00:56:01.178Z,23.08
2023-01-27T00:58:28.399Z,24.88
2023-01-27T01:00:56.166Z,25.23
2023-01-27T01:03:23.134Z,23.98
2023-01-27T01:05:50.000Z,25.95
2023-01-27T01:08:16.763Z,24.17
2023-01-27T01:10:43.258Z,24.10
2023-01-27T01:13:11.744Z,26.05
2023-01-27T01:15:39.503Z,22.95
2023-01-27T01:18:07.191Z,24.63
2023-01-27T01:20:42.831Z,25.10
2023-01-27T01:23:10.269Z,26.08
2023-01-27T01:25:37.254Z,25.25
2023-01-27T01:28:05.639Z,25.83
2023-01-27T01:30:34.391Z,26.45
2023-01-27T01:33:01.113Z,26.85
2023-01-27T01:35:27.532Z,24.75
2023-01-27T01:37:54.519Z,23.92
2023-01-27T01:40:24.620Z,25.48
2023-01-27T01:42:57.845Z,24.40
2023-01-27T01:45:36.855Z,26.45
2023-01-27T01:48:08.420Z,27.08
2023-01-27T01:50:36.196Z,23.58
2023-01-27T01:53:06.520Z,24.60
2023-01-27T01:55:34.415Z,24.75
2023-01-27T01:58:02.394Z,25.00
2023-01-27T02:00:28.756Z,23.35
2023-01-27T02:02:55.890Z,22.85
2023-01-27T02:05:29.085Z,24.45
2023-01-27T02:07:57.632Z,27.33
2023-01-27T02:10:24.237Z,26.65
2023-01-27T02:12:56.004Z,26.02
2023-01-27T02:15:22.430Z,27.50
2023-01-27T02:17:49.201Z,24.92
2023-01-27T02:20:39.277Z,26.30
2023-01-27T02:23:30.041Z,26.55
2023-01-27T02:26:07.080Z,28.90
2023-01-27T02:28:33.597Z,28.38
2023-01-27T02:31:00.220Z,29.48
2023-01-27T02:33:26.803Z,28.80
2023-01-27T02:36:05.650Z,26.75
2023-01-27T02:38:38.647Z,24.95
2023-01-27T02:41:11.553Z,29.50
2023-01-27T02:43:37.944Z,27.05
2023-01-27T02:46:04.536Z,30.95
2023-01-27T02:48:31.078Z,26.67
2023-01-27T02:50:57.716Z,28.20
2023-01-27T02:53:24.101Z,28.45
2023-01-27T02:55:50.614Z,28.85
2023-01-27T02:58:17.119Z,26.98
2023-01-27T03:00:44.450Z,27.90
2023-01-27T03:03:10.830Z,30.58
2023-01-27T03:05:37.214Z,28.73
2023-01-27T03:08:03.761Z,31.33
2023-01-27T03:10:30.119Z,30.60
2023-01-27T03:12:56.507Z,32.00
2023-01-27T03:15:41.638Z,32.20
2023-01-27T03:18:13.446Z,30.38
2023-01-27T03:20:41.332Z,31.40
2023-01-27T03:23:07.884Z,31.67
2023-01-27T03:25:34.573Z,31.45
2023-01-27T03:28:01.665Z,31.48
2023-01-27T03:30:29.022Z,29.90
2023-01-27T03:32:57.600Z,34.63
2023-01-27T03:35:34.213Z,32.35
2023-01-27T03:38:19.693Z,37.47
2023-01-27T03:41:04.572Z,35.28
2023-01-27T03:43:49.568Z,36.08
2023-01-27T03:46:19.012Z,41.78
2023-01-27T03:48:49.806Z,38.30
2023-01-27T03:51:17.148Z,41.05
2023-01-27T03:53:43.890Z,40.08
2023-01-27T03:56:10.645Z,38.35
2023-01-27T03:58:37.431Z,42.70
2023-01-27T04:01:07.030Z,37.58
2023-01-27T04:03:54.066Z,38.42
2023-01-27T04:06:45.384Z,39.10
2023-01-27T04:09:13.335Z,37.30
2023-01-27T04:11:55.033Z,35.60
2023-01-27T04:14:42.993Z,36.22
2023-01-27T04:17:12.520Z,34.33
2023-01-27T04:19:39.200Z,35.00
2023-01-27T04:22:06.519Z,35.45
2023-01-27T04:24:33.132Z,30.50
2023-01-27T04:27:03.166Z,30.42
2023-01-27T04:29:32.796Z,28.23
2023-01-27T04:31:59.223Z,27.92
2023-01-27T04:34:27.338Z,28.08
2023-01-27T04:36:54.894Z,27.10
2023-01-27T04:39:21.335Z,26.98
2023-01-27T04:41:49.553Z,25.88
2023-01-27T04:44:16.010Z,26.00
2023-01-27T04:46:42.462Z,24.73
2023-01-27T04:49:08.827Z,26.35
2023-01-27T04:51:35.480Z,27.23
2023-01-27T04:54:03.708Z,25.98
2023-01-27T04:56:35.927Z,28.38
2023-01-27T04:59:05.476Z,30.27
2023-01-27T05:01:32.590Z,30.25
2023-01-27T05:03:59.125Z,31.25
2023-01-27T05:06:26.727Z,36.22
2023-01-27T05:08:53.401Z,33.83
2023-01-27T05:11:20.312Z,31.42
2023-01-27T05:13:47.030Z,31.65
2023-01-27T05:16:21.822Z,45.03
2023-01-27T05:18:49.817Z,30.30
2023-01-27T05:21:19.836Z,36.92
2023-01-27T05:23:46.700Z,34.50
2023-01-27T05:26:14.312Z,36.35
2023-01-27T05:28:45.202Z,38.05
2023-01-27T05:31:23.605Z,36.55
2023-01-27T05:33:52.453Z,38.95
2023-01-27T05:36:20.782Z,36.10
2023-01-27T05:38:47.549Z,38.45
2023-01-27T05:41:15.311Z,35.95
2023-01-27T05:43:43.200Z,36.55
2023-01-27T05:46:12.995Z,39.70
2023-01-27T05:48:41.854Z,36.75
2023-01-27T05:51:13.531Z,32.97
2023-01-27T05:53:41.856Z,41.07
2023-01-27T05:56:10.592Z,37.08
2023-01-27T05:58:41.159Z,35.83
2023-01-27T06:01:13.524Z,38.88
2023-01-27T06:03:40.695Z,38.75
2023-01-27T06:06:08.125Z,38.05
2023-01-27T06:08:34.968Z,37.85
2023-01-27T06:11:01.921Z,40.10
2023-01-27T06:13:28.352Z,33.40
2023-01-27T06:15:57.612Z,34.28
2023-01-27T06:18:24.099Z,32.90
2023-01-27T06:20:50.825Z,32.47
2023-01-27T06:23:18.059Z,32.88
2023-01-27T06:25:47.129Z,34.67
2023-01-27T06:28:28.307Z,30.95
2023-01-27T06:30:55.852Z,32.60
2023-01-27T06:33:22.346Z,33.45
2023-01-27T06:35:48.729Z,31.52
2023-01-27T06:38:15.611Z,32.65
2023-01-27T06:40:44.423Z,33.47
2023-01-27T06:43:14.541Z,34.45
2023-01-27T06:45:41.041Z,30.35
2023-01-27T06:48:08.741Z,30.23
2023-01-27T06:50:36.352Z,31.13
2023-01-27T06:53:05.916Z,36.03
2023-01-27T06:55:33.190Z,31.80
2023-01-27T06:58:01.527Z,29.60
2023-01-27T07:00:28.132Z,29.05
2023-01-27T07:02:57.637Z,30.08
2023-01-27T07:05:24.534Z,27.88
2023-01-27T07:07:53.158Z,28.33
2023-01-27T07:10:19.525Z,27.08
2023-01-27T07:12:45.964Z,26.33
2023-01-27T07:15:13.112Z,26.52
2023-01-27T07:17:39.869Z,27.73
2023-01-27T07:20:07.981Z,28.27
2023-01-27T07:22:34.457Z,27.55
2023-01-27T07:25:01.172Z,27.88
2023-01-27T07:27:28.179Z,28.40
2023-01-27T07:29:54.553Z,28.95
2023-01-27T07:32:21.128Z,27.52
2023-01-27T07:34:47.615Z,26.50
2023-01-27T07:37:14.695Z,25.77
2023-01-27T07:39:41.757Z,25.95
2023-01-27T07:42:09.098Z,25.08
2023-01-27T07:44:35.535Z,27.45
2023-01-27T07:47:02.305Z,26.35
2023-01-27T07:49:28.713Z,24.33
2023-01-27T07:51:55.172Z,24.45
2023-01-27T07:54:21.566Z,25.05
2023-01-27T07:56:48.067Z,26.10
2023-01-27T07:59:14.947Z,25.63
2023-01-27T08:01:41.904Z,28.42
2023-01-27T08:04:08.617Z,25.60
2023-01-27T08:06:35.113Z,27.25
2023-01-27T08:09:01.506Z,26.15
2023-01-27T08:11:27.917Z,27.00
2023-01-27T08:13:54.289Z,26.88
2023-01-27T08:16:20.733Z,28.98
2023-01-27T08:18:47.090Z,30.58
2023-01-27T08:21:13.797Z,32.17
2023-01-27T08:23:40.529Z,29.15
2023-01-27T08:26:07.649Z,29.55
2023-01-27T08:28:35.802Z,30.55
2023-01-27T08:31:16.702Z,31.00
2023-01-27T08:33:45.588Z,35.05
2023-01-27T08:36:15.031Z,34.03
2023-01-27T08:38:43.082Z,30.67
2023-01-27T08:41:14.670Z,33.25
2023-01-27T08:43:41.717Z,33.05
2023-01-27T08:46:09.080Z,32.72
2023-01-27T08:48:37.180Z,30.55
2023-01-27T08:51:05.732Z,32.40
2023-01-27T08:53:33.348Z,32.22
2023-01-27T08:56:04.159Z,32.67
2023-01-27T08:58:33.277Z,33.30
2023-01-27T09:01:02.047Z,35.25
2023-01-27T09:03:31.478Z,30.58
2023-01-27T09:05:58.245Z,34.28
2023-01-27T09:08:25.701Z,30.42
2023-01-27T09:10:52.339Z,34.53
2023-01-27T09:13:22.193Z,30.75
2023-01-27T09:15:54.454Z,35.78
2023-01-27T09:18:21.484Z,34.55
2023-01-27T09:20:47.872Z,35.42
2023-01-27T09:23:14.285Z,31.33
2023-01-27T09:25:41.284Z,32.92
2023-01-27T09:28:16.657Z,33.13
2023-01-27T09:30:46.308Z,31.70
2023-01-27T09:33:17.410Z,32.92
2023-01-27T09:35:51.528Z,34.30
2023-01-27T09:41:06.027Z,32.63
2023-01-27T09:43:47.139Z,31.92
2023-01-27T09:46:22.804Z,33.35
2023-01-27T09:49:48.458Z,32.65
2023-01-27T09:52:52.388Z,32.65
2023-01-27T09:55:30.592Z,33.10
2023-01-27T09:58:10.507Z,31.70
2023-01-27T10:00:57.077Z,32.15
2023-01-27T10:03:54.519Z,35.15
2023-01-27T10:06:43.881Z,31.45
2023-01-27T10:09:23.315Z,35.40
2023-01-27T10:12:10.008Z,32.42
2023-01-27T10:15:10.198Z,34.38
2023-01-27T10:17:53.411Z,32.45
2023-01-27T10:20:29.008Z,32.38
2023-01-27T10:23:36.017Z,31.42
2023-01-27T10:26:21.183Z,33.05
2023-01-27T10:28:54.574Z,30.35
2023-01-27T10:31:27.198Z,33.95
2023-01-27T10:34:03.288Z,30.23
2023-01-27T10:37:04.072Z,32.00
2023-01-27T10:39:44.113Z,31.25
2023-01-27T10:42:38.514Z,30.27
2023-01-27T10:45:24.294Z,31.90
2023-01-27T10:48:15.536Z,32.72
2023-01-27T10:50:50.764Z,30.35
2023-01-27T10:53:29.022Z,28.98
2023-01-27T10:56:07.454Z,28.80
2023-01-27T10:58:55.967Z,28.05
2023-01-27T11:01:30.935Z,29.17
2023-01-27T11:04:03.901Z,30.40
2023-01-27T11:06:39.291Z,32.35
2023-01-27T11:09:23.894Z,32.05
2023-01-27T11:11:52.184Z,33.20
2023-01-27T11:14:29.348Z,30.52
2023-01-27T11:17:25.440Z,31.17
2023-01-27T11:20:42.119Z,26.20
2023-01-27T11:23:31.353Z,25.75
2023-01-27T11:26:13.650Z,25.73
2023-01-27T11:29:16.018Z,24.80
2023-01-27T11:32:25.707Z,27.55
2023-01-27T11:35:13.428Z,25.80
2023-01-27T11:37:45.445Z,25.25
2023-01-27T11:40:26.735Z,25.92
2023-01-27T11:42:55.288Z,24.73
2023-01-27T11:45:21.796Z,24.02
2023-01-27T11:47:52.905Z,23.80
2023-01-27T11:50:22.019Z,24.40
2023-01-27T11:52:51.216Z,22.45
2023-01-27T11:55:21.634Z,22.25
2023-01-27T11:57:55.431Z,23.35
2023-01-27T12:00:26.116Z,23.27
2023-01-27T12:03:03.521Z,24.55
2023-01-27T12:05:34.945Z,24.25
2023-01-27T12:08:03.750Z,24.95
2023-01-27T12:10:44.337Z,23.65
2023-01-27T12:13:19.881Z,24.83
2023-01-27T12:15:55.133Z,24.85
2023-01-27T12:18:23.579Z,23.58
2023-01-27T12:20:59.155Z,22.77
2023-01-27T12:23:34.299Z,23.58
2023-01-27T12:26:09.606Z,24.75
2023-01-27T12:28:40.044Z,24.20
2023-01-27T12:31:42.888Z,22.25
2023-01-27T12:34:17.604Z,24.58
2023-01-27T12:36:44.434Z,24.90
2023-01-27T12:39:48.500Z,26.10
2023-01-27T12:42:38.305Z,24.42
2023-01-27T12:45:26.004Z,23.63
2023-01-27T12:48:01.401Z,26.05
2023-01-27T12:50:31.289Z,27.00
2023-01-27T12:53:12.792Z,26.73
2023-01-27T12:55:40.829Z,26.60
2023-01-27T12:58:24.186Z,25.60
2023-01-27T13:00:50.576Z,24.83
2023-01-27T13:03:20.977Z,22.33
2023-01-27T13:05:47.789Z,24.40
2023-01-27T13:08:19.365Z,23.27
2023-01-27T13:10:51.119Z,23.38
2023-01-27T13:13:24.954Z,24.55
2023-01-27T13:15:55.268Z,22.38
2023-01-27T13:18:32.552Z,22.20
2023-01-27T13:21:09.075Z,21.05
2023-01-27T13:23:38.888Z,21.67
2023-01-27T13:26:14.375Z,21.92
2023-01-27T13:29:04.493Z,20.75
2023-01-27T13:31:33.910Z,19.70
2023-01-27T13:34:18.928Z,18.00
2023-01-27T13:37:02.512Z,17.48
2023-01-27T13:39:55.007Z,16.90
2023-01-27T13:42:37.570Z,16.73
2023-01-27T13:45:41.844Z,14.98
2023-01-27T13:48:31.653Z,15.20
2023-01-27T13:51:31.135Z,13.90
2023-01-27T13:54:03.337Z,15.35
2023-01-27T13:56:42.179Z,14.60
2023-01-27T13:59:46.092Z,14.73
2023-01-27T14:02:36.081Z,14.23
2023-01-27T14:05:21.925Z,14.07
2023-01-27T14:07:54.299Z,13.27
2023-01-27T14:10:39.527Z,12.57
2023-01-27T14:13:33.579Z,13.23
2023-01-27T14:16:32.853Z,12.57
2023-01-27T14:19:30.886Z,12.88
2023-01-27T14:22:06.596Z,13.70
2023-01-27T14:24:33.505Z,12.07
2023-01-27T14:27:10.782Z,12.93
2023-01-27T14:30:07.862Z,11.93
2023-01-27T14:32:46.035Z,12.82
2023-01-27T14:35:44.869Z,11.57
2023-01-27T14:38:33.811Z,11.70
2023-01-27T14:41:26.490Z,11.07
2023-01-27T14:44:38.453Z,11.82
2023-01-27T14:47:26.484Z,11.50
2023-01-27T14:50:18.704Z,11.50
2023-01-27T14:53:03.858Z,11.52
2023-01-27T14:55:40.389Z,11.48
2023-01-27T14:58:18.974Z,11.35
2023-01-27T15:01:16.831Z,10.93
2023-01-27T15:04:05.262Z,10.98
2023-01-27T15:06:36.580Z,10.50
2023-01-27T15:09:24.082Z,11.18
2023-01-27T15:12:19.112Z,10.63
2023-01-27T15:15:22.098Z,11.38
2023-01-27T15:17:58.065Z,10.20
2023-01-27T15:20:53.924Z,10.75
2023-01-27T15:23:49.286Z,10.68
2023-01-27T15:26:21.275Z,10.25
2023-01-27T15:28:48.210Z,10.07
2023-01-27T15:31:14.924Z,9.90
2023-01-27T15:33:53.683Z,10.40
2023-01-27T15:36:32.362Z,9.18
2023-01-27T15:39:16.212Z,9.27
2023-01-27T15:41:53.395Z,9.88
2023-01-27T15:44:59.704Z,9.98
2023-01-27T15:47:30.057Z,9.73
2023-01-27T15:50:08.759Z,10.40
2023-01-27T15:52:41.895Z,10.15
2023-01-27T15:55:23.385Z,10.02
2023-01-27T15:57:54.788Z,9.77
2023-01-27T16:00:37.657Z,9.60
2023-01-27T16:03:15.213Z,9.75
2023-01-27T16:05:45.889Z,10.68
2023-01-27T16:08:14.701Z,10.68
2023-01-27T16:10:41.980Z,9.40
2023-01-27T16:13:26.154Z,9.13
2023-01-27T16:16:17.656Z,9.23
2023-01-27T16:18:49.154Z,9.73
2023-01-27T16:21:37.385Z,8.20
2023-01-27T16:24:14.188Z,7.95
2023-01-27T16:26:50.195Z,8.40
2023-01-27T16:29:35.687Z,7.88
2023-01-27T16:32:19.821Z,8.05
2023-01-27T16:34:50.338Z,7.88
2023-01-27T16:37:24.888Z,7.75
2023-01-27T16:40:09.135Z,7.25
2023-01-27T16:42:40.885Z,8.55
2023-01-27T16:45:20.327Z,7.35
2023-01-27T16:48:04.910Z,6.95
2023-01-27T16:50:39.223Z,7.28
2023-01-27T16:53:13.164Z,7.88
2023-01-27T16:55:39.998Z,7.70
2023-01-27T16:58:18.177Z,7.60
2023-01-27T17:00:46.385Z,7.47
2023-01-27T17:03:17.811Z,7.30
2023-01-27T17:05:51.962Z,8.23
2023-01-27T17:10:55.930Z,7.72
2023-01-27T17:13:35.818Z,8.10
2023-01-27T17:16:06.099Z,8.70
2023-01-27T17:18:50.954Z,8.93
2023-01-27T17:21:33.265Z,8.52
2023-01-27T17:24:04.286Z,8.02
2023-01-27T17:26:30.977Z,8.23
2023-01-27T17:28:58.120Z,8.23
2023-01-27T17:31:25.339Z,8.18
2023-01-27T17:34:00.982Z,8.65
2023-01-27T17:36:30.021Z,8.30
2023-01-27T17:38:59.764Z,8.27
2023-01-27T17:41:38.424Z,7.78
2023-01-27T17:44:12.679Z,7.88
2023-01-27T17:46:39.947Z,7.75
2023-01-27T17:49:14.423Z,8.15
2023-01-27T17:51:48.702Z,7.75
2023-01-27T17:54:33.872Z,7.90
2023-01-27T17:57:09.818Z,7.90
2023-01-27T17:59:40.436Z,8.20
2023-01-27T18:02:19.997Z,7.72
2023-01-27T18:04:47.107Z,7.70
2023-01-27T18:07:13.978Z,7.72
2023-01-27T18:09:46.290Z,7.50
2023-01-27T18:12:33.143Z,8.10
2023-01-27T18:15:34.033Z,7.82
2023-01-27T18:18:01.662Z,9.20
2023-01-27T18:20:32.840Z,7.70
2023-01-27T18:22:59.678Z,8.23
2023-01-27T18:25:26.131Z,8.18
2023-01-27T18:27:55.082Z,7.80
2023-01-27T18:30:23.637Z,7.60
2023-01-27T18:33:00.843Z,7.80
2023-01-27T18:35:30.548Z,8.48
2023-01-27T18:38:01.533Z,7.63
2023-01-27T18:40:35.689Z,8.02
2023-01-27T18:45:31.730Z,7.90
2023-01-27T18:47:59.425Z,7.80
2023-01-27T18:50:26.972Z,8.50
2023-01-27T18:52:54.087Z,8.13
2023-01-27T18:55:30.444Z,8.05
2023-01-27T18:57:58.945Z,8.20
2023-01-27T19:00:30.820Z,9.13
2023-01-27T19:03:00.884Z,8.20
2023-01-27T19:05:30.737Z,8.05
2023-01-27T19:07:57.577Z,8.27
2023-01-27T19:10:28.228Z,8.43
2023-01-27T19:12:56.281Z,8.20
2023-01-27T19:15:26.014Z,7.90
2023-01-27T19:17:54.907Z,8.13
2023-01-27T19:20:23.702Z,8.27
2023-01-27T19:22:51.791Z,8.48
2023-01-27T19:25:18.313Z,8.48
2023-01-27T19:27:49.845Z,8.35
2023-01-27T19:30:37.068Z,8.25
2023-01-27T19:33:12.817Z,8.00
2023-01-27T19:35:40.573Z,7.95
2023-01-27T19:38:10.767Z,9.10
2023-01-27T19:40:37.084Z,8.20
2023-01-27T19:43:03.460Z,9.05
2023-01-27T19:45:29.920Z,9.07
2023-01-27T19:47:59.493Z,10.07
2023-01-27T19:50:28.815Z,9.63
2023-01-27T19:52:55.232Z,9.88
2023-01-27T19:55:21.761Z,9.88
2023-01-27T19:57:49.550Z,9.80
2023-01-27T20:00:15.901Z,9.32
2023-01-27T20:02:43.478Z,9.60
2023-01-27T20:05:09.813Z,8.80
2023-01-27T20:07:36.347Z,9.88
2023-01-27T20:10:02.868Z,9.93
2023-01-27T20:12:29.182Z,9.75
2023-01-27T20:14:55.552Z,9.70
2023-01-27T20:17:21.888Z,9.35
2023-01-27T20:19:49.699Z,10.00
2023-01-27T20:22:16.037Z,9.82
2023-01-27T20:24:42.439Z,9.48
2023-01-27T20:27:10.222Z,9.55
2023-01-27T20:29:37.183Z,9.35
2023-01-27T20:32:06.939Z,9.07
2023-01-27T20:34:34.222Z,9.30
2023-01-27T20:37:00.589Z,10.07
2023-01-27T20:39:26.932Z,9.88
2023-01-27T20:41:53.291Z,8.80
2023-01-27T20:44:19.704Z,8.77
2023-01-27T20:46:46.055Z,8.82
2023-01-27T20:49:12.370Z,8.75
2023-01-27T20:51:38.731Z,8.77
2023-01-27T20:54:05.667Z,8.57
2023-01-27T20:56:32.053Z,7.40
2023-01-27T20:58:58.409Z,8.10
2023-01-27T21:01:24.996Z,8.18
2023-01-27T21:03:51.819Z,8.43
2023-01-27T21:06:21.555Z,8.27
2023-01-27T21:08:49.146Z,7.50
2023-01-27T21:11:18.170Z,7.75
2023-01-27T21:13:44.831Z,7.00
2023-01-27T21:16:12.068Z,7.35
2023-01-27T21:18:38.513Z,7.03
2023-01-27T21:21:05.295Z,7.40
2023-01-27T21:23:33.242Z,7.72
2023-01-27T21:26:05.189Z,7.53
2023-01-27T21:28:32.965Z,7.13
2023-01-27T21:31:05.304Z,7.03
2023-01-27T21:33:34.152Z,7.20
2023-01-27T21:36:00.469Z,6.93
2023-01-27T21:38:27.327Z,6.82
2023-01-27T21:40:55.584Z,6.45
2023-01-27T21:43:40.973Z,6.78
2023-01-27T21:46:07.276Z,6.80
2023-01-27T21:48:33.641Z,7.13
2023-01-27T21:50:59.999Z,7.13
2023-01-27T21:53:27.153Z,7.30
2023-01-27T21:55:53.624Z,6.93
2023-01-27T21:58:20.057Z,6.85
2023-01-27T22:00:46.441Z,6.78
2023-01-27T22:03:12.806Z,7.05
2023-01-27T22:05:39.222Z,7.18
2023-01-27T22:08:06.737Z,7.53
2023-01-27T22:10:33.492Z,7.70
2023-01-27T22:13:03.769Z,7.68
2023-01-27T22:15:31.209Z,7.88
2023-01-27T22:17:58.536Z,7.93
2023-01-27T22:20:25.523Z,7.47
2023-01-27T22:22:52.203Z,8.23
2023-01-27T22:25:18.917Z,8.73
2023-01-27T22:27:46.189Z,8.48
2023-01-27T22:30:15.278Z,8.32
2023-01-27T22:32:42.046Z,9.05
2023-01-27T22:35:09.162Z,8.70
2023-01-27T22:37:35.932Z,8.50
2023-01-27T22:40:02.437Z,8.90
2023-01-27T22:42:28.855Z,9.13
2023-01-27T22:44:55.216Z,8.95
2023-01-27T22:47:21.951Z,9.23
2023-01-27T22:49:48.274Z,9.30
2023-01-27T22:52:16.727Z,9.77
2023-01-27T22:54:43.992Z,9.68
2023-01-27T22:57:10.352Z,9.65
2023-01-27T22:59:36.844Z,9.18
2023-01-27T23:02:03.186Z,10.50
2023-01-27T23:04:29.550Z,10.27
2023-01-27T23:06:55.872Z,9.80
2023-01-27T23:09:22.227Z,10.27
2023-01-27T23:11:48.840Z,11.55
2023-01-27T23:14:15.424Z,10.82
2023-01-27T23:16:41.896Z,11.43
2023-01-27T23:19:08.367Z,12.13
2023-01-27T23:21:34.742Z,11.27
2023-01-27T23:24:01.138Z,11.45
2023-01-27T23:26:27.649Z,12.15
2023-01-27T23:28:54.020Z,12.20
2023-01-27T23:31:20.500Z,11.82
2023-01-27T23:33:49.037Z,11.77
2023-01-27T23:36:15.455Z,11.13
2023-01-27T23:38:41.932Z,11.48
2023-01-27T23:41:14.249Z,11.48
2023-01-27T23:43:40.622Z,11.32
2023-01-27T23:46:06.969Z,11.73
2023-01-27T23:48:33.380Z,11.82
2023-01-27T23:51:08.861Z,11.85
2023-01-27T23:53:35.351Z,11.60
2023-01-27T23:56:02.044Z,12.57
2023-01-27T23:58:28.458Z,11.80
